sensor_id;sensor_type;location;lat;lon;timestamp;P1;durP1;ratioP1;P2;durP2;ratioP2
39188;SDS011;24915;50.858;4.376;2022-12-26T00:01:32;7.65;;;6.93;;
39188;SDS011;24915;50.858;4.376;2022-12-26T00:03:59;7.70;;;6.93;;
39188;SDS011;24915;50.858;4.376;2022-12-26T00:06:25;7.88;;;7.18;;
39188;SDS011;24915;50.858;4.376;2022-12-26T00:08:52;8.52;;;7.72;;
39188;SDS011;24915;50.858;4.376;2022-12-26T00:11:18;8.93;;;7.93;;
39188;SDS011;24915;50.858;4.376;2022-12-26T00:13:45;10.43;;;7.85;;
39188;SDS011;24915;50.858;4.376;2022-12-26T00:16:12;9.75;;;8.77;;
39188;SDS011;24915;50.858;4.376;2022-12-26T00:18:42;9.40;;;8.50;;
39188;SDS011;24915;50.858;4.376;2022-12-26T00:21:09;9.20;;;8.30;;
39188;SDS011;24915;50.858;4.376;2022-12-26T00:23:36;10.38;;;8.45;;
39188;SDS011;24915;50.858;4.376;2022-12-26T00:26:03;9.93;;;8.90;;
39188;SDS011;24915;50.858;4.376;2022-12-26T00:28:34;9.90;;;9.00;;
39188;SDS011;24915;50.858;4.376;2022-12-26T00:31:04;11.05;;;9.85;;
39188;SDS011;24915;50.858;4.376;2022-12-26T00:33:32;12.45;;;9.57;;
39188;SDS011;24915;50.858;4.376;2022-12-26T00:36:21;9.40;;;8.40;;
39188;SDS011;24915;50.858;4.376;2022-12-26T00:38:49;9.77;;;8.77;;
39188;SDS011;24915;50.858;4.376;2022-12-26T00:41:16;9.75;;;8.73;;
39188;SDS011;24915;50.858;4.376;2022-12-26T00:43:43;8.20;;;7.40;;
39188;SDS011;24915;50.858;4.376;2022-12-26T00:46:09;8.60;;;7.80;;
39188;SDS011;24915;50.858;4.376;2022-12-26T00:48:35;8.57;;;7.78;;
39188;SDS011;24915;50.858;4.376;2022-12-26T00:51:01;9.05;;;7.63;;
39188;SDS011;24915;50.858;4.376;2022-12-26T00:53:27;11.20;;;8.93;;
39188;SDS011;24915;50.858;4.376;2022-12-26T00:55:53;8.93;;;7.85;;
39188;SDS011;24915;50.858;4.376;2022-12-26T00:58:19;9.07;;;8.25;;
39188;SDS011;24915;50.858;4.376;2022-12-26T01:00:45;9.25;;;8.27;;
39188;SDS011;24915;50.858;4.376;2022-12-26T01:03:12;8.85;;;7.95;;
39188;SDS011;24915;50.858;4.376;2022-12-26T01:05:42;10.63;;;9.10;;
39188;SDS011;24915;50.858;4.376;2022-12-26T01:08:09;10.65;;;9.25;;
39188;SDS011;24915;50.858;4.376;2022-12-26T01:10:35;14.05;;;10.60;;
39188;SDS011;24915;50.858;4.376;2022-12-26T01:13:04;14.23;;;10.77;;
39188;SDS011;24915;50.858;4.376;2022-12-26T01:15:29;20.98;;;14.60;;
39188;SDS011;24915;50.858;4.376;2022-12-26T01:17:56;28.15;;;16.63;;
39188;SDS011;24915;50.858;4.376;2022-12-26T01:20:22;22.85;;;16.50;;
39188;SDS011;24915;50.858;4.376;2022-12-26T01:22:48;32.00;;;17.17;;
39188;SDS011;24915;50.858;4.376;2022-12-26T01:25:14;26.73;;;16.83;;
39188;SDS011;24915;50.858;4.376;2022-12-26T01:27:39;26.45;;;17.85;;
39188;SDS011;24915;50.858;4.376;2022-12-26T01:30:05;27.73;;;18.08;;
39188;SDS011;24915;50.858;4.376;2022-12-26T01:32:31;29.42;;;18.13;;
39188;SDS011;24915;50.858;4.376;2022-12-26T01:34:57;28.95;;;16.90;;
39188;SDS011;24915;50.858;4.376;2022-12-26T01:37:23;21.17;;;15.35;;
39188;SDS011;24915;50.858;4.376;2022-12-26T01:39:48;20.08;;;14.70;;
39188;SDS011;24915;50.858;4.376;2022-12-26T01:42:16;18.65;;;13.70;;
39188;SDS011;24915;50.858;4.376;2022-12-26T01:48:04;15.32;;;11.70;;
39188;SDS011;24915;50.858;4.376;2022-12-26T01:53:39;13.95;;;11.55;;
39188;SDS011;24915;50.858;4.376;2022-12-26T01:56:11;13.73;;;11.77;;
39188;SDS011;24915;50.858;4.376;2022-12-26T01:58:45;10.85;;;9.73;;
39188;SDS011;24915;50.858;4.376;2022-12-26T02:01:15;12.23;;;9.88;;
39188;SDS011;24915;50.858;4.376;2022-12-26T02:03:43;10.40;;;9.38;;
39188;SDS011;24915;50.858;4.376;2022-12-26T02:06:29;10.38;;;8.90;;
39188;SDS011;24915;50.858;4.376;2022-12-26T02:08:55;9.60;;;8.60;;
39188;SDS011;24915;50.858;4.376;2022-12-26T02:11:35;9.60;;;8.60;;
39188;SDS011;24915;50.858;4.376;2022-12-26T02:14:05;9.77;;;8.73;;
39188;SDS011;24915;50.858;4.376;2022-12-26T02:16:31;10.57;;;7.93;;
39188;SDS011;24915;50.858;4.376;2022-12-26T02:18:58;8.05;;;7.25;;
39188;SDS011;24915;50.858;4.376;2022-12-26T02:21:39;9.82;;;7.47;;
39188;SDS011;24915;50.858;4.376;2022-12-26T02:24:52;7.13;;;6.43;;
39188;SDS011;24915;50.858;4.376;2022-12-26T02:33:26;6.80;;;6.20;;
39188;SDS011;24915;50.858;4.376;2022-12-26T02:38:55;6.30;;;5.38;;
39188;SDS011;24915;50.858;4.376;2022-12-26T02:47:12;5.15;;;4.65;;
39188;SDS011;24915;50.858;4.376;2022-12-26T02:50:00;4.85;;;4.32;;
39188;SDS011;24915;50.858;4.376;2022-12-26T02:56:09;4.13;;;3.80;;
39188;SDS011;24915;50.858;4.376;2022-12-26T03:02:03;4.35;;;3.70;;
39188;SDS011;24915;50.858;4.376;2022-12-26T03:04:50;4.00;;;3.70;;
39188;SDS011;24915;50.858;4.376;2022-12-26T03:07:37;3.60;;;3.38;;
39188;SDS011;24915;50.858;4.376;2022-12-26T03:10:27;3.88;;;3.45;;
39188;SDS011;24915;50.858;4.376;2022-12-26T03:13:16;3.67;;;3.38;;
39188;SDS011;24915;50.858;4.376;2022-12-26T03:18:38;3.38;;;3.08;;
39188;SDS011;24915;50.858;4.376;2022-12-26T03:21:06;3.75;;;3.42;;
39188;SDS011;24915;50.858;4.376;2022-12-26T03:23:33;4.18;;;3.88;;
39188;SDS011;24915;50.858;4.376;2022-12-26T03:26:08;4.47;;;4.18;;
39188;SDS011;24915;50.858;4.376;2022-12-26T03:28:57;5.53;;;4.47;;
39188;SDS011;24915;50.858;4.376;2022-12-26T03:31:42;5.68;;;4.57;;
39188;SDS011;24915;50.858;4.376;2022-12-26T03:34:08;6.00;;;5.47;;
39188;SDS011;24915;50.858;4.376;2022-12-26T03:36:48;6.22;;;4.85;;
39188;SDS011;24915;50.858;4.376;2022-12-26T03:57:34;4.30;;;4.00;;
39188;SDS011;24915;50.858;4.376;2022-12-26T04:00:27;3.92;;;3.63;;
39188;SDS011;24915;50.858;4.376;2022-12-26T04:03:13;4.28;;;3.70;;
39188;SDS011;24915;50.858;4.376;2022-12-26T04:06:01;6.63;;;4.25;;
39188;SDS011;24915;50.858;4.376;2022-12-26T04:08:58;4.28;;;3.88;;
39188;SDS011;24915;50.858;4.376;2022-12-26T04:11:46;5.93;;;4.03;;
39188;SDS011;24915;50.858;4.376;2022-12-26T04:23:12;4.80;;;4.20;;
39188;SDS011;24915;50.858;4.376;2022-12-26T04:26:22;4.28;;;3.97;;
39188;SDS011;24915;50.858;4.376;2022-12-26T04:29:12;4.57;;;4.22;;
39188;SDS011;24915;50.858;4.376;2022-12-26T04:34:54;4.40;;;4.00;;
39188;SDS011;24915;50.858;4.376;2022-12-26T04:37:56;5.75;;;4.05;;
39188;SDS011;24915;50.858;4.376;2022-12-26T04:40:43;4.50;;;4.10;;
39188;SDS011;24915;50.858;4.376;2022-12-26T04:43:32;4.90;;;4.00;;
39188;SDS011;24915;50.858;4.376;2022-12-26T04:46:21;4.28;;;3.92;;
39188;SDS011;24915;50.858;4.376;2022-12-26T04:48:47;3.58;;;3.28;;
39188;SDS011;24915;50.858;4.376;2022-12-26T04:51:34;5.32;;;3.63;;
39188;SDS011;24915;50.858;4.376;2022-12-26T04:54:00;4.13;;;3.42;;
39188;SDS011;24915;50.858;4.376;2022-12-26T04:56:26;5.70;;;3.67;;
39188;SDS011;24915;50.858;4.376;2022-12-26T04:58:51;3.55;;;3.25;;
39188;SDS011;24915;50.858;4.376;2022-12-26T05:01:17;3.80;;;2.83;;
39188;SDS011;24915;50.858;4.376;2022-12-26T05:04:01;4.55;;;3.45;;
39188;SDS011;24915;50.858;4.376;2022-12-26T05:09:29;4.13;;;2.80;;
39188;SDS011;24915;50.858;4.376;2022-12-26T05:12:02;3.22;;;2.80;;
39188;SDS011;24915;50.858;4.376;2022-12-26T05:14:30;4.05;;;2.60;;
39188;SDS011;24915;50.858;4.376;2022-12-26T05:16:58;3.28;;;2.78;;
39188;SDS011;24915;50.858;4.376;2022-12-26T05:19:42;3.55;;;2.42;;
39188;SDS011;24915;50.858;4.376;2022-12-26T05:25:15;3.13;;;2.42;;
39188;SDS011;24915;50.858;4.376;2022-12-26T05:28:02;2.55;;;2.38;;
39188;SDS011;24915;50.858;4.376;2022-12-26T05:30:47;3.40;;;2.60;;
39188;SDS011;24915;50.858;4.376;2022-12-26T05:33:12;2.63;;;2.40;;
39188;SDS011;24915;50.858;4.376;2022-12-26T05:38:22;3.00;;;2.58;;
39188;SDS011;24915;50.858;4.376;2022-12-26T05:40:48;3.10;;;2.75;;
39188;SDS011;24915;50.858;4.376;2022-12-26T05:43:13;6.30;;;2.95;;
39188;SDS011;24915;50.858;4.376;2022-12-26T05:45:39;3.60;;;2.22;;
39188;SDS011;24915;50.858;4.376;2022-12-26T05:48:05;7.40;;;2.53;;
39188;SDS011;24915;50.858;4.376;2022-12-26T05:50:30;2.40;;;2.00;;
39188;SDS011;24915;50.858;4.376;2022-12-26T05:52:56;2.45;;;2.25;;
39188;SDS011;24915;50.858;4.376;2022-12-26T05:55:23;2.40;;;2.20;;
39188;SDS011;24915;50.858;4.376;2022-12-26T05:57:49;3.58;;;1.95;;
39188;SDS011;24915;50.858;4.376;2022-12-26T06:00:15;5.07;;;2.05;;
39188;SDS011;24915;50.858;4.376;2022-12-26T06:02:41;1.92;;;1.83;;
39188;SDS011;24915;50.858;4.376;2022-12-26T06:05:07;5.03;;;2.40;;
39188;SDS011;24915;50.858;4.376;2022-12-26T06:07:33;2.72;;;2.00;;
39188;SDS011;24915;50.858;4.376;2022-12-26T06:09:59;2.25;;;1.77;;
39188;SDS011;24915;50.858;4.376;2022-12-26T06:12:24;3.30;;;1.90;;
39188;SDS011;24915;50.858;4.376;2022-12-26T06:14:50;1.65;;;1.55;;
39188;SDS011;24915;50.858;4.376;2022-12-26T06:17:16;1.92;;;1.55;;
39188;SDS011;24915;50.858;4.376;2022-12-26T06:19:41;1.63;;;1.52;;
39188;SDS011;24915;50.858;4.376;2022-12-26T06:22:07;2.13;;;1.58;;
39188;SDS011;24915;50.858;4.376;2022-12-26T06:24:33;4.32;;;1.50;;
39188;SDS011;24915;50.858;4.376;2022-12-26T06:26:58;3.20;;;1.70;;
39188;SDS011;24915;50.858;4.376;2022-12-26T06:29:24;1.88;;;1.20;;
39188;SDS011;24915;50.858;4.376;2022-12-26T06:31:50;3.90;;;1.30;;
39188;SDS011;24915;50.858;4.376;2022-12-26T06:34:15;2.00;;;1.80;;
39188;SDS011;24915;50.858;4.376;2022-12-26T06:36:42;1.90;;;1.40;;
39188;SDS011;24915;50.858;4.376;2022-12-26T06:39:08;3.22;;;1.50;;
39188;SDS011;24915;50.858;4.376;2022-12-26T06:41:34;3.25;;;1.48;;
39188;SDS011;24915;50.858;4.376;2022-12-26T06:43:59;2.65;;;1.50;;
39188;SDS011;24915;50.858;4.376;2022-12-26T06:46:25;2.28;;;1.65;;
39188;SDS011;24915;50.858;4.376;2022-12-26T06:48:51;3.08;;;1.70;;
39188;SDS011;24915;50.858;4.376;2022-12-26T06:51:18;6.50;;;1.83;;
39188;SDS011;24915;50.858;4.376;2022-12-26T06:53:46;2.78;;;1.70;;
39188;SDS011;24915;50.858;4.376;2022-12-26T06:56:20;5.68;;;1.52;;
39188;SDS011;24915;50.858;4.376;2022-12-26T06:58:50;3.92;;;1.88;;
39188;SDS011;24915;50.858;4.376;2022-12-26T07:01:20;3.87;;;1.80;;
39188;SDS011;24915;50.858;4.376;2022-12-26T07:03:47;4.35;;;2.10;;
39188;SDS011;24915;50.858;4.376;2022-12-26T07:06:20;2.97;;;1.48;;
39188;SDS011;24915;50.858;4.376;2022-12-26T07:08:46;3.75;;;1.50;;
39188;SDS011;24915;50.858;4.376;2022-12-26T07:11:17;4.32;;;1.67;;
39188;SDS011;24915;50.858;4.376;2022-12-26T07:13:44;4.35;;;1.50;;
39188;SDS011;24915;50.858;4.376;2022-12-26T07:16:10;3.83;;;1.40;;
39188;SDS011;24915;50.858;4.376;2022-12-26T07:18:36;1.80;;;1.40;;
39188;SDS011;24915;50.858;4.376;2022-12-26T07:21:09;7.25;;;1.52;;
39188;SDS011;24915;50.858;4.376;2022-12-26T07:23:36;3.50;;;1.48;;
39188;SDS011;24915;50.858;4.376;2022-12-26T07:26:02;4.35;;;1.58;;
39188;SDS011;24915;50.858;4.376;2022-12-26T07:28:28;3.05;;;1.50;;
39188;SDS011;24915;50.858;4.376;2022-12-26T07:30:54;3.97;;;1.15;;
39188;SDS011;24915;50.858;4.376;2022-12-26T07:33:21;4.43;;;1.77;;
39188;SDS011;24915;50.858;4.376;2022-12-26T07:35:47;4.75;;;1.48;;
39188;SDS011;24915;50.858;4.376;2022-12-26T07:38:13;2.53;;;1.20;;
39188;SDS011;24915;50.858;4.376;2022-12-26T07:40:39;4.68;;;1.60;;
39188;SDS011;24915;50.858;4.376;2022-12-26T07:43:05;4.13;;;1.30;;
39188;SDS011;24915;50.858;4.376;2022-12-26T07:45:31;4.78;;;1.45;;
39188;SDS011;24915;50.858;4.376;2022-12-26T07:47:57;3.65;;;1.20;;
39188;SDS011;24915;50.858;4.376;2022-12-26T07:50:23;4.65;;;1.13;;
39188;SDS011;24915;50.858;4.376;2022-12-26T07:52:50;3.83;;;1.60;;
39188;SDS011;24915;50.858;4.376;2022-12-26T07:55:16;2.97;;;1.20;;
39188;SDS011;24915;50.858;4.376;2022-12-26T07:57:42;4.88;;;1.45;;
39188;SDS011;24915;50.858;4.376;2022-12-26T08:00:08;4.85;;;1.40;;
39188;SDS011;24915;50.858;4.376;2022-12-26T08:02:34;8.23;;;2.47;;
39188;SDS011;24915;50.858;4.376;2022-12-26T08:05:00;7.00;;;1.58;;
39188;SDS011;24915;50.858;4.376;2022-12-26T08:07:25;3.33;;;1.35;;
39188;SDS011;24915;50.858;4.376;2022-12-26T08:09:51;3.88;;;1.52;;
39188;SDS011;24915;50.858;4.376;2022-12-26T08:12:17;6.47;;;2.03;;
39188;SDS011;24915;50.858;4.376;2022-12-26T08:14:46;8.07;;;2.15;;
39188;SDS011;24915;50.858;4.376;2022-12-26T08:17:12;4.72;;;1.20;;
39188;SDS011;24915;50.858;4.376;2022-12-26T08:19:37;5.65;;;1.60;;
39188;SDS011;24915;50.858;4.376;2022-12-26T08:22:03;11.40;;;1.50;;
39188;SDS011;24915;50.858;4.376;2022-12-26T08:24:29;6.03;;;1.60;;
39188;SDS011;24915;50.858;4.376;2022-12-26T08:26:55;6.20;;;1.48;;
39188;SDS011;24915;50.858;4.376;2022-12-26T08:29:21;7.72;;;1.65;;
39188;SDS011;24915;50.858;4.376;2022-12-26T08:31:46;6.35;;;1.40;;
39188;SDS011;24915;50.858;4.376;2022-12-26T08:34:12;9.95;;;1.70;;
39188;SDS011;24915;50.858;4.376;2022-12-26T08:36:38;8.02;;;1.60;;
39188;SDS011;24915;50.858;4.376;2022-12-26T08:39:04;5.55;;;1.33;;
39188;SDS011;24915;50.858;4.376;2022-12-26T08:41:30;6.68;;;1.65;;
39188;SDS011;24915;50.858;4.376;2022-12-26T08:43:55;6.38;;;1.52;;
39188;SDS011;24915;50.858;4.376;2022-12-26T08:46:21;12.65;;;3.30;;
39188;SDS011;24915;50.858;4.376;2022-12-26T08:48:47;14.75;;;1.70;;
39188;SDS011;24915;50.858;4.376;2022-12-26T08:51:23;13.23;;;2.38;;
39188;SDS011;24915;50.858;4.376;2022-12-26T08:53:50;6.55;;;1.90;;
39188;SDS011;24915;50.858;4.376;2022-12-26T08:56:18;4.65;;;1.55;;
39188;SDS011;24915;50.858;4.376;2022-12-26T08:58:46;10.00;;;1.90;;
39188;SDS011;24915;50.858;4.376;2022-12-26T09:01:16;8.52;;;1.70;;
39188;SDS011;24915;50.858;4.376;2022-12-26T09:03:42;11.38;;;1.83;;
39188;SDS011;24915;50.858;4.376;2022-12-26T09:06:10;6.55;;;1.75;;
39188;SDS011;24915;50.858;4.376;2022-12-26T09:08:37;8.77;;;1.40;;
39188;SDS011;24915;50.858;4.376;2022-12-26T09:13:36;4.70;;;1.63;;
39188;SDS011;24915;50.858;4.376;2022-12-26T09:18:34;8.25;;;1.73;;
39188;SDS011;24915;50.858;4.376;2022-12-26T09:21:01;12.43;;;2.03;;
39188;SDS011;24915;50.858;4.376;2022-12-26T09:23:28;12.15;;;1.77;;
39188;SDS011;24915;50.858;4.376;2022-12-26T09:25:54;9.85;;;1.45;;
39188;SDS011;24915;50.858;4.376;2022-12-26T09:28:20;3.80;;;1.48;;
39188;SDS011;24915;50.858;4.376;2022-12-26T09:30:46;7.78;;;1.60;;
39188;SDS011;24915;50.858;4.376;2022-12-26T09:33:12;8.55;;;1.70;;
39188;SDS011;24915;50.858;4.376;2022-12-26T09:35:41;10.68;;;4.13;;
39188;SDS011;24915;50.858;4.376;2022-12-26T09:38:06;9.70;;;2.80;;
39188;SDS011;24915;50.858;4.376;2022-12-26T09:40:35;7.68;;;2.35;;
39188;SDS011;24915;50.858;4.376;2022-12-26T09:43:25;6.82;;;4.25;;
39188;SDS011;24915;50.858;4.376;2022-12-26T09:46:10;6.07;;;2.47;;
39188;SDS011;24915;50.858;4.376;2022-12-26T09:49:19;5.00;;;1.65;;
39188;SDS011;24915;50.858;4.376;2022-12-26T09:51:49;7.35;;;2.28;;
39188;SDS011;24915;50.858;4.376;2022-12-26T09:54:30;9.43;;;1.77;;
39188;SDS011;24915;50.858;4.376;2022-12-26T09:57:01;7.25;;;2.30;;
39188;SDS011;24915;50.858;4.376;2022-12-26T09:59:33;7.78;;;2.30;;
39188;SDS011;24915;50.858;4.376;2022-12-26T10:02:17;10.32;;;3.00;;
39188;SDS011;24915;50.858;4.376;2022-12-26T10:04:45;6.45;;;1.50;;
39188;SDS011;24915;50.858;4.376;2022-12-26T10:16:03;7.18;;;2.58;;
39188;SDS011;24915;50.858;4.376;2022-12-26T10:21:20;10.90;;;4.15;;
39188;SDS011;24915;50.858;4.376;2022-12-26T10:24:16;13.82;;;4.97;;
39188;SDS011;24915;50.858;4.376;2022-12-26T10:26:47;45.05;;;15.75;;
39188;SDS011;24915;50.858;4.376;2022-12-26T10:31:56;14.38;;;6.38;;
39188;SDS011;24915;50.858;4.376;2022-12-26T10:34:24;10.45;;;3.20;;
39188;SDS011;24915;50.858;4.376;2022-12-26T10:36:59;11.82;;;2.60;;
39188;SDS011;24915;50.858;4.376;2022-12-26T10:39:39;13.75;;;4.30;;
39188;SDS011;24915;50.858;4.376;2022-12-26T10:45:23;7.40;;;2.50;;
39188;SDS011;24915;50.858;4.376;2022-12-26T10:48:10;15.25;;;3.80;;
39188;SDS011;24915;50.858;4.376;2022-12-26T10:50:38;21.30;;;5.75;;
39188;SDS011;24915;50.858;4.376;2022-12-26T10:53:11;19.23;;;3.85;;
39188;SDS011;24915;50.858;4.376;2022-12-26T10:55:38;14.93;;;4.05;;
39188;SDS011;24915;50.858;4.376;2022-12-26T10:58:05;13.25;;;3.80;;
39188;SDS011;24915;50.858;4.376;2022-12-26T11:00:41;21.05;;;2.95;;
39188;SDS011;24915;50.858;4.376;2022-12-26T11:03:09;15.68;;;4.10;;
39188;SDS011;24915;50.858;4.376;2022-12-26T11:05:38;19.25;;;5.85;;
39188;SDS011;24915;50.858;4.376;2022-12-26T11:10:38;13.13;;;4.03;;
39188;SDS011;24915;50.858;4.376;2022-12-26T11:13:07;12.80;;;4.65;;
39188;SDS011;24915;50.858;4.376;2022-12-26T11:15:48;8.52;;;4.30;;
39188;SDS011;24915;50.858;4.376;2022-12-26T11:18:18;11.23;;;3.75;;
39188;SDS011;24915;50.858;4.376;2022-12-26T11:20:47;7.60;;;2.13;;
39188;SDS011;24915;50.858;4.376;2022-12-26T11:25:51;6.88;;;2.78;;
39188;SDS011;24915;50.858;4.376;2022-12-26T11:28:25;9.20;;;2.90;;
39188;SDS011;24915;50.858;4.376;2022-12-26T11:30:53;13.18;;;3.95;;
39188;SDS011;24915;50.858;4.376;2022-12-26T11:38:44;10.63;;;2.30;;
39188;SDS011;24915;50.858;4.376;2022-12-26T11:41:18;8.90;;;2.40;;
39188;SDS011;24915;50.858;4.376;2022-12-26T11:55:05;10.57;;;4.78;;
39188;SDS011;24915;50.858;4.376;2022-12-26T11:58:21;11.40;;;3.05;;
39188;SDS011;24915;50.858;4.376;2022-12-26T12:03:37;14.93;;;3.03;;
39188;SDS011;24915;50.858;4.376;2022-12-26T12:28:26;11.70;;;2.63;;
39188;SDS011;24915;50.858;4.376;2022-12-26T12:30:58;12.75;;;3.05;;
39188;SDS011;24915;50.858;4.376;2022-12-26T12:44:20;15.18;;;3.38;;
39188;SDS011;24915;50.858;4.376;2022-12-26T12:52:33;7.07;;;2.90;;
39188;SDS011;24915;50.858;4.376;2022-12-26T13:00:43;17.05;;;4.15;;
39188;SDS011;24915;50.858;4.376;2022-12-26T13:03:31;15.88;;;4.25;;
39188;SDS011;24915;50.858;4.376;2022-12-26T13:08:54;15.50;;;3.80;;
39188;SDS011;24915;50.858;4.376;2022-12-26T13:11:39;11.57;;;3.38;;
39188;SDS011;24915;50.858;4.376;2022-12-26T13:16:50;13.65;;;4.38;;
39188;SDS011;24915;50.858;4.376;2022-12-26T13:19:24;27.75;;;10.38;;
39188;SDS011;24915;50.858;4.376;2022-12-26T13:21:57;17.27;;;3.83;;
39188;SDS011;24915;50.858;4.376;2022-12-26T13:24:34;14.93;;;4.38;;
39188;SDS011;24915;50.858;4.376;2022-12-26T13:27:09;11.45;;;3.85;;
39188;SDS011;24915;50.858;4.376;2022-12-26T13:29:46;17.63;;;3.88;;
39188;SDS011;24915;50.858;4.376;2022-12-26T13:32:23;13.30;;;3.03;;
39188;SDS011;24915;50.858;4.376;2022-12-26T13:34:57;11.32;;;2.90;;
39188;SDS011;24915;50.858;4.376;2022-12-26T13:40:48;16.15;;;4.13;;
39188;SDS011;24915;50.858;4.376;2022-12-26T13:45:46;17.83;;;3.67;;
39188;SDS011;24915;50.858;4.376;2022-12-26T13:50:47;9.02;;;3.00;;
39188;SDS011;24915;50.858;4.376;2022-12-26T13:55:49;19.88;;;4.38;;
39188;SDS011;24915;50.858;4.376;2022-12-26T14:25:58;15.80;;;3.92;;
39188;SDS011;24915;50.858;4.376;2022-12-26T14:31:25;30.00;;;8.27;;
39188;SDS011;24915;50.858;4.376;2022-12-26T14:42:22;17.48;;;3.30;;
39188;SDS011;24915;50.858;4.376;2022-12-26T14:45:36;15.63;;;4.20;;
39188;SDS011;24915;50.858;4.376;2022-12-26T14:47:57;16.75;;;3.30;;
39188;SDS011;24915;50.858;4.376;2022-12-26T14:53:29;14.02;;;3.00;;
39188;SDS011;24915;50.858;4.376;2022-12-26T15:12:28;14.00;;;3.00;;
39188;SDS011;24915;50.858;4.376;2022-12-26T15:23:38;14.55;;;5.90;;
39188;SDS011;24915;50.858;4.376;2022-12-26T15:31:53;33.17;;;6.88;;
39188;SDS011;24915;50.858;4.376;2022-12-26T15:51:17;15.50;;;4.53;;
39188;SDS011;24915;50.858;4.376;2022-12-26T16:02:10;15.32;;;3.10;;
39188;SDS011;24915;50.858;4.376;2022-12-26T16:04:48;13.40;;;4.05;;
39188;SDS011;24915;50.858;4.376;2022-12-26T16:09:54;17.50;;;5.63;;
39188;SDS011;24915;50.858;4.376;2022-12-26T16:14:49;19.77;;;4.38;;
39188;SDS011;24915;50.858;4.376;2022-12-26T16:17:24;12.95;;;3.83;;
39188;SDS011;24915;50.858;4.376;2022-12-26T16:19:51;20.48;;;4.15;;
39188;SDS011;24915;50.858;4.376;2022-12-26T16:22:20;13.57;;;4.47;;
39188;SDS011;24915;50.858;4.376;2022-12-26T16:25:20;16.15;;;4.40;;
39188;SDS011;24915;50.858;4.376;2022-12-26T16:27:48;18.40;;;5.00;;
39188;SDS011;24915;50.858;4.376;2022-12-26T16:30:22;22.30;;;7.75;;
39188;SDS011;24915;50.858;4.376;2022-12-26T16:32:50;16.10;;;6.30;;
39188;SDS011;24915;50.858;4.376;2022-12-26T16:35:21;36.65;;;11.95;;
39188;SDS011;24915;50.858;4.376;2022-12-26T16:37:58;21.17;;;7.45;;
39188;SDS011;24915;50.858;4.376;2022-12-26T16:45:42;29.67;;;8.65;;
39188;SDS011;24915;50.858;4.376;2022-12-26T16:48:13;18.20;;;4.97;;
39188;SDS011;24915;50.858;4.376;2022-12-26T16:50:49;15.50;;;4.80;;
39188;SDS011;24915;50.858;4.376;2022-12-26T16:53:22;16.23;;;4.47;;
39188;SDS011;24915;50.858;4.376;2022-12-26T16:55:50;10.38;;;4.32;;
39188;SDS011;24915;50.858;4.376;2022-12-26T16:58:26;24.27;;;6.55;;
39188;SDS011;24915;50.858;4.376;2022-12-26T17:00:59;25.95;;;5.57;;
39188;SDS011;24915;50.858;4.376;2022-12-26T17:06:15;15.02;;;4.53;;
39188;SDS011;24915;50.858;4.376;2022-12-26T17:08:47;16.48;;;3.75;;
39188;SDS011;24915;50.858;4.376;2022-12-26T17:11:15;23.55;;;5.18;;
39188;SDS011;24915;50.858;4.376;2022-12-26T17:13:50;22.77;;;5.50;;
39188;SDS011;24915;50.858;4.376;2022-12-26T17:16:19;22.52;;;5.10;;
39188;SDS011;24915;50.858;4.376;2022-12-26T17:18:48;16.17;;;4.90;;
39188;SDS011;24915;50.858;4.376;2022-12-26T17:21:24;18.75;;;4.28;;
39188;SDS011;24915;50.858;4.376;2022-12-26T17:26:48;19.92;;;4.18;;
39188;SDS011;24915;50.858;4.376;2022-12-26T17:29:35;19.10;;;5.28;;
39188;SDS011;24915;50.858;4.376;2022-12-26T17:32:23;14.40;;;4.53;;
39188;SDS011;24915;50.858;4.376;2022-12-26T17:35:03;15.03;;;4.93;;
39188;SDS011;24915;50.858;4.376;2022-12-26T17:37:41;15.63;;;5.57;;
39188;SDS011;24915;50.858;4.376;2022-12-26T17:42:45;21.05;;;5.03;;
39188;SDS011;24915;50.858;4.376;2022-12-26T17:45:14;24.23;;;6.15;;
39188;SDS011;24915;50.858;4.376;2022-12-26T17:47:45;20.13;;;5.90;;
39188;SDS011;24915;50.858;4.376;2022-12-26T17:50:11;25.92;;;5.63;;
39188;SDS011;24915;50.858;4.376;2022-12-26T17:52:37;19.20;;;5.10;;
39188;SDS011;24915;50.858;4.376;2022-12-26T17:55:03;18.55;;;4.90;;
39188;SDS011;24915;50.858;4.376;2022-12-26T17:57:35;19.00;;;5.80;;
39188;SDS011;24915;50.858;4.376;2022-12-26T18:00:01;20.20;;;5.13;;
39188;SDS011;24915;50.858;4.376;2022-12-26T18:02:32;51.40;;;19.70;;
39188;SDS011;24915;50.858;4.376;2022-12-26T18:04:58;65.10;;;30.38;;
39188;SDS011;24915;50.858;4.376;2022-12-26T18:07:23;21.52;;;6.10;;
39188;SDS011;24915;50.858;4.376;2022-12-26T18:09:49;20.25;;;5.97;;
39188;SDS011;24915;50.858;4.376;2022-12-26T18:12:16;14.82;;;5.45;;
39188;SDS011;24915;50.858;4.376;2022-12-26T18:14:43;16.10;;;5.25;;
39188;SDS011;24915;50.858;4.376;2022-12-26T18:17:13;23.75;;;7.20;;
39188;SDS011;24915;50.858;4.376;2022-12-26T18:19:42;24.23;;;5.53;;
39188;SDS011;24915;50.858;4.376;2022-12-26T18:22:12;32.22;;;8.55;;
39188;SDS011;24915;50.858;4.376;2022-12-26T18:24:39;32.45;;;6.97;;
39188;SDS011;24915;50.858;4.376;2022-12-26T18:27:05;28.70;;;8.88;;
39188;SDS011;24915;50.858;4.376;2022-12-26T18:29:32;20.33;;;5.95;;
39188;SDS011;24915;50.858;4.376;2022-12-26T18:31:57;34.00;;;10.32;;
39188;SDS011;24915;50.858;4.376;2022-12-26T18:34:23;25.63;;;8.05;;
39188;SDS011;24915;50.858;4.376;2022-12-26T18:36:49;21.48;;;6.00;;
39188;SDS011;24915;50.858;4.376;2022-12-26T18:39:15;16.83;;;4.80;;
39188;SDS011;24915;50.858;4.376;2022-12-26T18:41:41;40.58;;;12.48;;
39188;SDS011;24915;50.858;4.376;2022-12-26T18:44:07;15.40;;;4.75;;
39188;SDS011;24915;50.858;4.376;2022-12-26T18:46:33;24.45;;;7.07;;
39188;SDS011;24915;50.858;4.376;2022-12-26T18:48:59;17.95;;;5.85;;
39188;SDS011;24915;50.858;4.376;2022-12-26T18:51:25;41.03;;;15.63;;
39188;SDS011;24915;50.858;4.376;2022-12-26T18:53:52;20.80;;;7.25;;
39188;SDS011;24915;50.858;4.376;2022-12-26T18:56:19;25.73;;;7.40;;
39188;SDS011;24915;50.858;4.376;2022-12-26T18:58:46;35.53;;;11.32;;
39188;SDS011;24915;50.858;4.376;2022-12-26T19:01:14;23.35;;;6.00;;
39188;SDS011;24915;50.858;4.376;2022-12-26T19:03:41;27.75;;;10.77;;
39188;SDS011;24915;50.858;4.376;2022-12-26T19:06:10;18.45;;;6.80;;
39188;SDS011;24915;50.858;4.376;2022-12-26T19:08:40;21.80;;;7.78;;
39188;SDS011;24915;50.858;4.376;2022-12-26T19:11:05;24.35;;;7.05;;
39188;SDS011;24915;50.858;4.376;2022-12-26T19:13:31;19.23;;;5.57;;
39188;SDS011;24915;50.858;4.376;2022-12-26T19:15:57;11.77;;;5.55;;
39188;SDS011;24915;50.858;4.376;2022-12-26T19:18:24;10.98;;;4.88;;
39188;SDS011;24915;50.858;4.376;2022-12-26T19:20:50;15.77;;;5.22;;
39188;SDS011;24915;50.858;4.376;2022-12-26T19:23:15;28.05;;;8.10;;
39188;SDS011;24915;50.858;4.376;2022-12-26T19:25:41;17.55;;;4.85;;
39188;SDS011;24915;50.858;4.376;2022-12-26T19:28:07;14.60;;;5.07;;
39188;SDS011;24915;50.858;4.376;2022-12-26T19:30:32;26.85;;;6.05;;
39188;SDS011;24915;50.858;4.376;2022-12-26T19:32:58;20.48;;;5.40;;
39188;SDS011;24915;50.858;4.376;2022-12-26T19:35:24;14.13;;;5.20;;
39188;SDS011;24915;50.858;4.376;2022-12-26T19:37:49;16.00;;;5.13;;
39188;SDS011;24915;50.858;4.376;2022-12-26T19:40:15;18.88;;;5.47;;
39188;SDS011;24915;50.858;4.376;2022-12-26T19:42:40;22.92;;;5.35;;
39188;SDS011;24915;50.858;4.376;2022-12-26T19:45:07;14.80;;;4.55;;
39188;SDS011;24915;50.858;4.376;2022-12-26T19:47:34;17.13;;;4.50;;
39188;SDS011;24915;50.858;4.376;2022-12-26T19:50:00;16.85;;;4.43;;
39188;SDS011;24915;50.858;4.376;2022-12-26T19:52:26;14.93;;;4.30;;
39188;SDS011;24915;50.858;4.376;2022-12-26T19:54:52;19.58;;;4.63;;
39188;SDS011;24915;50.858;4.376;2022-12-26T19:57:18;14.40;;;4.57;;